• Join FlightAware (Why Join?)
  • Login
  • US Flag 
07:24PM EST


 

Airport Tracker/Info


-or-


 

Live Flight TrackerFlight Track Log ✈ CPA80 ✈ 30-Apr-2013 ✈ PANC - KORD

Flight Track Log - Related Links

Times and Time Zones

All times are in EDT time to prevent confusion due to time zone crossing. See the CPA80 flight status page for this flight to view local times or setup timezone preferences in your user account.

Time Position Orientation Groundspeed Altitude Reporting Facility
EDT Latitude Longitude Course Direction KTS MPH feet Rate Location/Type
04:09PM 61.0000 -150.2000 100° East 280 322 7,700  Level Anchorage Center
04:10PM 60.9667 -150.0667 117° Southeast 290 334 10,100 2,280 Climbing Anchorage Center
04:11PM 60.9333 -149.9000 112° Southeast 320 368 12,300 2,160 Climbing Anchorage Center
04:12PM 60.9053 -148.4030 100° East  Level FlightAware Approximate
04:12PM 60.9167 -149.7167 101° East 350 403 14,500  Level Anchorage Center
04:13PM 60.8801 -148.1266 100° East  Level FlightAware Approximate
04:13PM 60.8833 -149.5167 109° East 360 414 16,800  Level Anchorage Center
04:14PM 60.8570 -147.8496 100° East  Level FlightAware Approximate
04:14PM 60.8667 -149.3000 99° East 400 460 17,900  Level Anchorage Center
04:15PM 60.8500 -149.0500 98° East 440 506 18,800 1,260 Climbing Anchorage Center
04:16PM 60.8500 -148.7667 90° East 490 564 20,500 1,680 Climbing Anchorage Center
04:17PM 60.8333 -148.4833 97° East 500 575 22,200 1,680 Climbing Anchorage Center
04:18PM 60.8167 -148.2000 97° East 520 598 23,900 1,560 Climbing Anchorage Center
04:19PM 60.8167 -147.8833 90° East 530 610 25,400 1,380 Climbing Anchorage Center
04:20PM 60.8000 -147.5333 95° East 550 633 26,700 1,380 Climbing Anchorage Center
04:21PM 60.7833 -147.2333 96° East 550 633 28,200 1,680 Climbing Anchorage Center
04:22PM 60.7667 -146.9167 96° East 560 644 30,100 1,680 Climbing Anchorage Center
04:23PM 60.7500 -146.6000 96° East 550 633 31,600 1,380 Climbing Anchorage Center
04:24PM 60.7333 -146.2833 96° East 550 633 33,000 660 Climbing Anchorage Center
04:25PM 60.7167 -145.9833 96° East 550 633 33,000  Level Anchorage Center
04:26PM 60.6833 -145.6667 102° East 550 633 33,000  Level Anchorage Center
04:27PM 60.6667 -145.3500 96° East 550 633 33,000  Level Anchorage Center
04:28PM 60.6500 -145.0333 96° East 550 633 33,000  Level Anchorage Center
04:29PM 60.6333 -144.7167 96° East 560 644 33,000  Level Anchorage Center
04:30PM 60.6000 -144.4000 102° East 550 633 33,000  Level Anchorage Center
04:31PM 60.5833 -144.0833 96° East 560 644 33,000  Level Anchorage Center
04:32PM 60.5500 -143.7833 103° East 550 633 33,000  Level Anchorage Center
04:33PM 60.5333 -143.4667 96° East 560 644 33,000  Level Anchorage Center
04:34PM 60.5167 -143.1500 96° East 560 644 33,000  Level Anchorage Center
04:35PM 60.4833 -142.8167 101° East 560 644 33,000  Level Anchorage Center
04:36PM 60.4667 -142.5667 98° East 560 644 33,000  Level Anchorage Center
04:37PM 60.4333 -142.2500 102° East 550 633 33,000  Level Anchorage Center
04:38PM 60.4000 -141.9500 103° East 560 644 33,000  Level Anchorage Center
04:39PM 60.3833 -141.6333 96° East 550 633 33,000  Level Anchorage Center
04:40PM 60.3500 -141.3333 103° East 550 633 33,000  Level Anchorage Center
04:41PM 60.3167 -141.0167 102° East 550 633 33,000  Level Anchorage Center
04:42PM 60.2833 -140.7167 103° East 550 633 33,000  Level Anchorage Center
04:43PM 60.2500 -140.4000 102° East 560 644 33,000  Level Anchorage Center
04:44PM 60.2167 -140.1000 102° East 550 633 33,000  Level Anchorage Center
04:45PM 60.1833 -139.7833 102° East 560 644 33,000  Level Anchorage Center
04:46PM 60.1500 -139.4833 102° East 560 644 33,000  Level Anchorage Center
04:47PM 60.1167 -139.1833 102° East 550 633 33,000  Level Anchorage Center
04:48PM 60.0833 -138.8833 102° East 550 633 33,000  Level Anchorage Center
04:49PM 60.0500 -138.5833 102° East 550 633 33,000  Level Anchorage Center
04:50PM 60.0167 -138.2667 102° East 550 633 33,000  Level Anchorage Center
04:51PM 59.9833 -137.9667 102° East 550 633 33,000  Level Anchorage Center
04:52PM 59.9500 -137.6667 102° East 550 633 33,000  Level Anchorage Center
04:53PM 59.9167 -137.3667 102° East 560 644 33,000  Level Anchorage Center
04:54PM 59.8833 -137.0833 103° East 550 633 33,000  Level Anchorage Center
04:55PM 59.8500 -136.7833 102° East 550 633 33,000  Level Anchorage Center
04:56PM 59.8000 -136.4667 107° East 560 644 33,000  Level Anchorage Center
04:57PM 59.7667 -136.1833 103° East 560 644 33,000  Level Anchorage Center
04:58PM 59.7333 -135.8833 102° East 550 633 33,000  Level Anchorage Center
05:00PM 59.6945 -135.6032 105° East  Level FlightAware Approximate
05:07PM 59.4248 -133.7814 105° East  Level FlightAware Approximate
05:08PM 59.3843 -133.5236 107° East  Level FlightAware Approximate
05:09PM 59.3432 -133.2664 107° East  Level FlightAware Approximate
05:10PM 59.3016 -133.0098 108° East  Level FlightAware Approximate
05:11PM 59.2594 -132.7538 108° East  Level FlightAware Approximate
05:12PM 59.2168 -132.4985 108° East  Level FlightAware Approximate
05:13PM 59.1736 -132.2439 108° East  Level FlightAware Approximate
05:14PM 59.1300 -131.9899 108° East  Level FlightAware Approximate
05:15PM 59.0858 -131.7366 109° East  Level FlightAware Approximate
05:16PM 59.0412 -131.4839 109° East  Level FlightAware Approximate
05:17PM 58.9961 -131.2318 109° East  Level FlightAware Approximate
05:18PM 58.9504 -130.9805 109° East  Level FlightAware Approximate
05:19PM 58.9043 -130.7298 110° East  Level FlightAware Approximate
05:20PM 58.8578 -130.4797 110° East  Level FlightAware Approximate
05:21PM 58.8107 -130.2304 110° East  Level FlightAware Approximate
05:22PM 58.7631 -129.9817 110° East  Level FlightAware Approximate
05:23PM 58.7152 -129.7336 110° East  Level FlightAware Approximate
05:24PM 58.6668 -129.4862 111° Southeast  Level FlightAware Approximate
05:25PM 58.6180 -129.2395 111° Southeast  Level FlightAware Approximate
05:26PM 58.5690 -128.9933 111° Southeast  Level FlightAware Approximate
05:27PM 58.5204 -128.7471 111° Southeast  Level FlightAware Approximate
05:28PM 58.4713 -128.5016 111° Southeast  Level FlightAware Approximate
05:29PM 58.4218 -128.2567 111° Southeast  Level FlightAware Approximate
05:30PM 58.3719 -128.0125 111° Southeast  Level FlightAware Approximate
05:31PM 58.3216 -127.7689 111° Southeast  Level FlightAware Approximate
05:32PM 58.2709 -127.5260 112° Southeast  Level FlightAware Approximate
05:33PM 58.2197 -127.2838 112° Southeast  Level FlightAware Approximate
05:34PM 58.1681 -127.0423 112° Southeast  Level FlightAware Approximate
05:35PM 58.1160 -126.8015 112° Southeast  Level FlightAware Approximate
05:36PM 58.0634 -126.5614 112° Southeast  Level FlightAware Approximate
05:37PM 58.0103 -126.3221 113° Southeast  Level FlightAware Approximate
05:38PM 57.9559 -126.0842 113° Southeast  Level FlightAware Approximate
05:39PM 57.9010 -125.8471 113° Southeast  Level FlightAware Approximate
05:40PM 57.8457 -125.6106 114° Southeast  Level FlightAware Approximate
05:41PM 57.7900 -125.3749 114° Southeast  Level FlightAware Approximate
05:42PM 57.7338 -125.1400 114° Southeast  Level FlightAware Approximate
05:43PM 57.6770 -124.9058 115° Southeast  Level FlightAware Approximate
05:44PM 57.6197 -124.6726 115° Southeast  Level FlightAware Approximate
05:45PM 57.5619 -124.4400 115° Southeast  Level FlightAware Approximate
05:46PM 57.5037 -124.2083 115° Southeast  Level FlightAware Approximate
05:47PM 57.4450 -123.9772 115° Southeast  Level FlightAware Approximate
05:48PM 57.3860 -123.7470 115° Southeast  Level FlightAware Approximate
05:49PM 57.3265 -123.5174 116° Southeast  Level FlightAware Approximate
05:50PM 57.2666 -123.2886 116° Southeast  Level FlightAware Approximate
05:51PM 57.2063 -123.0605 116° Southeast  Level FlightAware Approximate
05:52PM 57.1456 -122.8332 116° Southeast  Level FlightAware Approximate
05:53PM 57.0845 -122.6067 116° Southeast  Level FlightAware Approximate
05:54PM 57.0230 -122.3809 117° Southeast  Level FlightAware Approximate
05:55PM 56.9610 -122.1558 117° Southeast  Level FlightAware Approximate
05:56PM 56.8987 -121.9315 117° Southeast  Level FlightAware Approximate
05:56PM 56.5000 -120.6500 118° Southeast 520 598 33,000  Level Edmonton Center
05:57PM 56.8360 -121.7079 117° Southeast  Level FlightAware Approximate
05:57PM 56.4167 -120.4000 121° Southeast 530 610 33,000  Level Edmonton Center
05:58PM 56.7728 -121.4851 117° Southeast  Level FlightAware Approximate
05:58PM 56.3500 -120.1500 116° Southeast 530 610 33,000  Level Edmonton Center
05:59PM 56.7093 -121.2630 117° Southeast  Level FlightAware Approximate
05:59PM 56.2667 -119.9333 125° Southeast 520 598 33,000  Level Edmonton Center
06:00PM 56.6454 -121.0417 118° Southeast  Level FlightAware Approximate
06:00PM 56.2167 -119.6833 110° East 520 598 33,000  Level Edmonton Center
06:01PM 56.5811 -120.8211 118° Southeast  Level FlightAware Approximate
06:01PM 56.1500 -119.4500 117° Southeast 520 598 33,000  Level Edmonton Center
06:02PM 56.0667 -119.2333 125° Southeast 520 598 33,000  Level Edmonton Center
06:03PM 56.0000 -119.0167 119° Southeast 520 598 33,000  Level Edmonton Center
06:04PM 55.9333 -118.7667 115° Southeast 520 598 33,000  Level Edmonton Center
06:05PM 55.8500 -118.5667 127° Southeast 520 598 33,000  Level Edmonton Center
06:06PM 55.7833 -118.3167 115° Southeast 520 598 33,000  Level Edmonton Center
06:07PM 55.7167 -118.1167 121° Southeast 510 587 33,000  Level Edmonton Center
06:08PM 55.6333 -117.8667 120° Southeast 510 587 33,000  Level Edmonton Center
06:09PM 55.5667 -117.6667 120° Southeast 510 587 33,000  Level Edmonton Center
06:10PM 55.5000 -117.4333 117° Southeast 510 587 33,000  Level Edmonton Center
06:11PM 55.4167 -117.2167 124° Southeast 510 587 33,000  Level Edmonton Center
06:12PM 55.3500 -117.0167 120° Southeast 510 587 33,000  Level Edmonton Center
06:13PM 55.2667 -116.7833 122° Southeast 510 587 33,000  Level Edmonton Center
06:14PM 55.2000 -116.5833 120° Southeast 510 587 33,000  Level Edmonton Center
06:15PM 55.1167 -116.3500 122° Southeast 510 587 33,000  Level Edmonton Center
06:16PM 55.0333 -116.1500 126° Southeast 510 587 33,000  Level Edmonton Center
06:17PM 54.9833 -115.9167 110° East 510 587 33,000  Level Edmonton Center
06:18PM 54.9000 -115.7167 126° Southeast 510 587 33,000  Level Edmonton Center
06:19PM 54.8167 -115.5167 126° Southeast 500 575 33,000  Level Edmonton Center
06:20PM 54.7333 -115.3167 126° Southeast 510 587 33,000  Level Edmonton Center
06:21PM 54.6500 -115.0833 122° Southeast 500 575 33,000  Level Edmonton Center
06:22PM 54.5833 -114.9000 122° Southeast 500 575 33,000  Level Edmonton Center
06:23PM 54.5167 -114.7000 120° Southeast 500 575 33,000  Level Edmonton Center
06:24PM 54.4333 -114.4833 123° Southeast 500 575 33,000  Level Edmonton Center
06:25PM 54.3667 -114.2833 120° Southeast 500 575 33,000  Level Edmonton Center
06:26PM 54.2833 -114.0833 125° Southeast 500 575 33,000  Level Edmonton Center
06:27PM 54.2167 -113.9000 122° Southeast 500 575 33,000  Level Edmonton Center
06:28PM 54.1167 -113.6667 126° Southeast 500 575 33,000  Level Edmonton Center
06:29PM 54.0500 -113.4833 122° Southeast 500 575 33,000  Level Edmonton Center
06:30PM 53.9833 -113.3000 122° Southeast 490 564 33,000  Level Edmonton Center
06:31PM 53.9000 -113.0833 123° Southeast 490 564 33,000  Level Edmonton Center
06:32PM 53.8167 -112.8833 125° Southeast 500 575 33,000  Level Edmonton Center
06:33PM 53.7333 -112.7000 127° Southeast 500 575 33,000  Level Edmonton Center
06:34PM 53.6667 -112.5167 121° Southeast 490 564 33,000  Level Edmonton Center
06:35PM 53.5833 -112.3333 127° Southeast 490 564 33,000  Level Edmonton Center
06:36PM 53.5000 -112.1167 123° Southeast 490 564 33,000  Level Edmonton Center
06:37PM 53.4333 -111.9333 121° Southeast 490 564 33,000 300 Level Edmonton Center
06:38PM 53.3333 -111.7333 130° Southeast 490 564 33,600 840 Climbing Edmonton Center
06:39PM 53.2667 -111.5667 124° Southeast 500 575 34,700 660 Climbing Edmonton Center
06:40PM 53.1833 -111.3833 127° Southeast 500 575 35,000 120 Climbing Edmonton Center
06:41PM 53.1000 -111.1667 123° Southeast 490 564 35,000  Level Edmonton Center
06:42PM 53.0167 -110.9833 127° Southeast 490 564 35,000  Level Edmonton Center
06:43PM 52.9500 -110.7833 119° Southeast 490 564 35,000  Level Edmonton Center
06:44PM 52.9000 -110.5667 111° Southeast 500 575 35,000  Level Edmonton Center
06:45PM 52.8667 -110.3500 104° East 500 575 35,000  Level Edmonton Center
06:46PM 52.8333 -110.1167 103° East 490 564 35,000  Level Edmonton Center
06:47PM 52.8000 -109.9667 110° East 500 575 35,000  Level Winnipeg Center
06:48PM 52.7667 -109.7333 103° East 500 575 35,000  Level Winnipeg Center
06:49PM 52.7167 -109.5333 112° Southeast 500 575 35,000  Level Winnipeg Center
06:50PM 52.6667 -109.3000 109° East 500 575 35,000  Level Winnipeg Center
06:51PM 52.6500 -109.0833 97° East 500 575 35,000  Level Winnipeg Center
06:52PM 52.6000 -108.8500 109° East 500 575 35,000  Level Winnipeg Center
06:53PM 52.5500 -108.6500 112° Southeast 500 575 35,000  Level Winnipeg Center
06:54PM 52.5000 -108.4333 111° Southeast 490 564 35,000  Level Winnipeg Center
06:55PM 52.4667 -108.2000 103° East 500 575 35,000  Level Winnipeg Center
06:56PM 52.4333 -108.0000 105° East 500 575 35,000  Level Winnipeg Center
06:57PM 52.3833 -107.7667 109° East 490 564 35,000  Level Winnipeg Center
06:58PM 52.3333 -107.5667 112° Southeast 490 564 35,000  Level Winnipeg Center
06:59PM 52.3000 -107.3667 105° East 490 564 35,000  Level Winnipeg Center
07:00PM 52.2500 -107.1667 112° Southeast 490 564 35,000  Level Winnipeg Center
07:01PM 52.2000 -106.9500 111° Southeast 490 564 35,000  Level Winnipeg Center
07:02PM 52.1667 -106.7333 104° East 480 552 35,000  Level Winnipeg Center
07:03PM 52.1167 -106.5333 112° Southeast 480 552 35,000  Level Winnipeg Center
07:04PM 52.0833 -106.3000 103° East 500 575 35,000  Level Winnipeg Center
07:05PM 52.0167 -106.1167 121° Southeast 490 564 35,000  Level Winnipeg Center
07:06PM 51.9500 -105.9167 118° Southeast 490 564 35,000  Level Winnipeg Center
07:07PM 51.8833 -105.7333 120° Southeast 490 564 35,000  Level Winnipeg Center
07:08PM 51.8167 -105.5333 118° Southeast 490 564 35,000  Level Winnipeg Center
07:09PM 51.7333 -105.3500 126° Southeast 490 564 35,000  Level Winnipeg Center
07:14PM 51.5320 -104.7490 126° Southeast 488 562 35,000  Level FlightAware
07:14PM 51.4940 -104.6520 122° Southeast 488 562 35,000  Level FlightAware
07:15PM 51.4530 -104.5480 122° Southeast 488 562 35,000  Level FlightAware
07:16PM 51.2420 -104.0200 122° Southeast 488 562 35,000  Level FlightAware
07:16PM 51.2070 -103.9340 123° Southeast 488 562 35,000  Level FlightAware
07:17PM 51.1600 -103.8140 122° Southeast 488 562 35,000  Level FlightAware
07:18PM 51.1100 -103.6850 122° Southeast 488 562 35,000  Level FlightAware
07:19PM 51.0690 -103.5810 122° Southeast 488 562 35,000  Level FlightAware
07:19PM 51.0280 -103.4770 122° Southeast 488 562 35,000  Level FlightAware
07:20PM 50.9880 -103.3740 122° Southeast 488 562 35,000  Level FlightAware
07:21PM 50.9370 -103.2450 122° Southeast 488 562 35,000  Level FlightAware
07:22PM 50.8960 -103.1410 122° Southeast 488 562 35,000  Level FlightAware
07:22PM 50.8550 -103.0380 122° Southeast 488 562 35,000  Level FlightAware
07:23PM 50.8150 -102.9350 122° Southeast 488 562 35,000  Level FlightAware
07:24PM 50.7740 -102.8320 122° Southeast 488 562 35,000  Level FlightAware
07:24PM 50.7230 -102.7040 122° Southeast 488 562 35,000  Level FlightAware
07:25PM 50.6820 -102.6010 122° Southeast 488 562 35,000  Level FlightAware
07:26PM 50.6420 -102.4980 121° Southeast 488 562 35,000  Level FlightAware
07:26PM 50.6010 -102.3960 122° Southeast 488 562 35,000  Level FlightAware
07:27PM 50.4000 -102.0667 122° Southeast 490 564 35,000  Level Winnipeg Center
07:28PM 50.3333 -101.9000 122° Southeast 490 564 35,000  Level Winnipeg Center
07:29PM 50.2500 -101.7000 123° Southeast 490 564 35,000  Level Winnipeg Center
07:30PM 50.1667 -101.5333 128° Southeast 490 564 35,000  Level Winnipeg Center
07:31PM 50.1000 -101.3500 119° Southeast 500 575 35,000  Level Winnipeg Center
07:32PM 50.0167 -101.1833 128° Southeast 500 575 35,000  Level Winnipeg Center
07:33PM 49.9333 -101.0167 128° Southeast 500 575 35,000  Level Winnipeg Center
07:34PM 49.8667 -100.8333 119° Southeast 500 575 35,000  Level Winnipeg Center
07:35PM 49.7667 -100.6500 130° Southeast 500 575 35,000  Level Winnipeg Center
07:36PM 49.6833 -100.4833 128° Southeast 500 575 35,000  Level Winnipeg Center
07:37PM 49.6167 -100.3000 119° Southeast 500 575 35,000  Level Winnipeg Center
07:38PM 49.5333 -100.1333 128° Southeast 510 587 35,000  Level Winnipeg Center
07:39PM 49.4500 -99.9500 125° Southeast 510 587 35,000  Level Winnipeg Center
07:40PM 49.3833 -99.8000 124° Southeast 510 587 35,000  Level Winnipeg Center
07:41PM 49.2833 -99.6000 127° Southeast 510 587 35,000  Level Winnipeg Center
07:42PM 49.2000 -99.4167 125° Southeast 510 587 35,000  Level Winnipeg Center
07:43PM 49.1167 -99.2333 125° Southeast 510 587 35,000  Level Winnipeg Center
07:44PM 49.0167 -99.0833 135° Southeast 510 587 35,000  Level Winnipeg Center
07:45PM 48.9500 -98.9000 119° Southeast 510 587 35,000  Level Winnipeg Center
07:46PM 48.8667 -98.7167 125° Southeast 510 587 35,000  Level Winnipeg Center
07:47PM 48.7667 -98.5333 130° Southeast 510 587 35,000  Level Winnipeg Center
07:48PM 48.6833 -98.3833 130° Southeast 520 598 35,000  Level Winnipeg Center
07:49PM 48.6000 -98.2000 124° Southeast 520 598 35,000 -60 Level Winnipeg Center
07:50PM 48.5392 -98.0514 122° Southeast 518 596 34,900 -60 Descending Minneapolis Center
07:51PM 48.4519 -97.8811 128° Southeast 516 594 34,900  Level Minneapolis Center
07:52PM 48.3567 -97.7258 133° Southeast 508 585 35,000  Climbing Minneapolis Center
07:53PM 48.2389 -97.5561 136° Southeast 494 568 34,900 -60 Descending Minneapolis Center
07:54PM 48.1208 -97.3833 136° Southeast 491 565 34,900  Level Minneapolis Center
07:55PM 48.0236 -97.2400 135° Southeast 490 564 34,900  Level Minneapolis Center
07:56PM 47.9050 -97.0703 136° Southeast 490 564 35,000  Climbing Minneapolis Center
07:57PM 47.8069 -96.9272 136° Southeast 492 566 35,000  Level Minneapolis Center
07:58PM 47.7275 -96.8136 136° Southeast 494 568 35,000  Level Minneapolis Center
07:59PM 47.6083 -96.6431 136° Southeast 494 568 35,000 -60 Level Minneapolis Center
08:00PM 47.5089 -96.5028 136° Southeast 493 567 34,900 -60 Descending Minneapolis Center
08:01PM 47.4314 -96.3933 136° Southeast 488 562 34,900  Level Minneapolis Center
08:02PM 47.3142 -96.2300 137° Southeast 484 557 34,900  Level Minneapolis Center
08:03PM 47.2175 -96.0944 136° Southeast 482 555 34,900  Level Minneapolis Center
08:05PM 47.1197 -95.9600 137° Southeast 482 555 34,900  Level Minneapolis Center
08:06PM 46.9853 -95.7739 137° Southeast 481 554 35,000  Climbing Minneapolis Center
08:07PM 46.8853 -95.6389 137° Southeast 487 560 35,000 -60 Level Minneapolis Center
08:08PM 46.7869 -95.5053 137° Southeast 487 560 34,900  Descending Minneapolis Center
08:09PM 46.6883 -95.3728 137° Southeast 483 556 35,000  Climbing Minneapolis Center
08:10PM 46.5900 -95.2406 137° Southeast 484 557 35,000 -60 Level Minneapolis Center
08:11PM 46.4906 -95.1069 137° Southeast 488 562 34,900  Descending Minneapolis Center
08:12PM 46.3717 -94.9492 137° Southeast 486 559 35,000  Climbing Minneapolis Center
08:13PM 46.2719 -94.8164 137° Southeast 487 560 35,000  Level Minneapolis Center
08:14PM 46.1967 -94.7186 138° Southeast 488 562 35,000  Level Minneapolis Center
08:15PM 46.0758 -94.5606 138° Southeast 489 563 35,000  Level Minneapolis Center
08:16PM 45.9750 -94.4289 138° Southeast 492 566 35,000  Level Minneapolis Center
08:17PM 45.8514 -94.2683 138° Southeast 498 573 35,000  Level Minneapolis Center
08:18PM 45.7494 -94.1386 138° Southeast 495 570 35,000  Level Minneapolis Center
08:19PM 45.6489 -94.0092 138° Southeast 489 563 35,000  Level Minneapolis Center
08:20PM 45.5469 -93.8789 138° Southeast 491 565 35,000  Level Minneapolis Center
08:21PM 45.4450 -93.7497 138° Southeast 491 565 35,000  Level Minneapolis Center
08:22PM 45.3436 -93.6208 138° Southeast 490 564 35,000  Level Minneapolis Center
08:23PM 45.2408 -93.4903 138° Southeast 493 567 35,000  Level Minneapolis Center
08:24PM 45.1406 -93.3556 137° Southeast 497 572 35,000  Level Minneapolis Center
08:25PM 45.0511 -93.1428 121° Southeast 518 596 35,000  Level Minneapolis Center
08:26PM 44.9706 -92.9706 123° Southeast 519 597 35,000  Level Minneapolis Center
08:27PM 44.8883 -92.8019 124° Southeast 516 594 35,000  Level Minneapolis Center
08:28PM 44.8078 -92.6336 124° Southeast 516 594 35,000  Level Minneapolis Center
08:29PM 44.7283 -92.4683 124° Southeast 512 589 35,000  Level Minneapolis Center
08:30PM 44.6486 -92.3025 124° Southeast 511 588 35,000  Level Minneapolis Center
08:31PM 44.5686 -92.1406 125° Southeast 508 585 35,000  Level Minneapolis Center
08:32PM 44.4903 -91.9783 124° Southeast 505 581 35,000  Level Minneapolis Center
08:33PM 44.4119 -91.8178 124° Southeast 503 579 35,000  Level Minneapolis Center
08:34PM 44.3169 -91.6269 125° Southeast 502 578 35,000  Level Minneapolis Center
08:35PM 44.2183 -91.4942 136° Southeast 496 571 35,000  Level Minneapolis Center
08:36PM 44.1189 -91.3614 136° Southeast 496 571 35,000 -60 Level Minneapolis Center
08:37PM 44.0267 -91.2269 134° Southeast 494 568 34,900 -780 Descending Minneapolis Center
08:38PM 43.9294 -91.0928 135° Southeast 494 568 33,500 -1,380 Descending Minneapolis Center
08:40PM 43.8319 -90.9561 135° Southeast 498 573 32,100 -1,380 Descending Minneapolis Center
08:41PM 43.7489 -90.8031 127° Southeast 502 578 30,700 -1,320 Descending Minneapolis Center
08:42PM 43.6692 -90.6053 119° Southeast 496 571 29,400 -1,320 Descending Minneapolis Center
08:43PM 43.6044 -90.4450 119° Southeast 483 556 28,000 -1,140 Descending Minneapolis Center
08:44PM 43.5414 -90.2900 119° Southeast 471 542 27,100 -1,020 Descending Minneapolis Center
08:45PM 43.4750 -90.1314 120° Southeast 462 532 26,000 -1,260 Descending Minneapolis Center
08:46PM 43.4144 -89.9831 119° Southeast 448 516 24,600 -1,440 Descending Minneapolis Center
08:47PM 43.3525 -89.8347 120° Southeast 448 516 23,100 -1,560 Descending Minneapolis Center
08:47PM 43.3122 -89.7397 120° Southeast 440 506 22,200 -1,380 Descending Chicago Center
08:48PM 43.2536 -89.5975 119° Southeast 431 496 21,000 -1,380 Descending Chicago Center
08:49PM 43.1936 -89.4600 121° Southeast 422 486 19,400 -1,740 Descending Chicago Center
08:50PM 43.1328 -89.3294 123° Southeast 412 474 17,500 -1,500 Descending Chicago Center
08:51PM 43.0444 -89.2289 140° Southeast 417 480 16,300 -1,080 Descending Chicago Center
08:52PM 42.9414 -89.1150 141° Southeast 411 473 15,300 -1,020 Descending Chicago Center
08:53PM 42.8533 -89.0189 141° Southeast 406 467 14,300 -780 Descending Chicago Center
08:54PM 42.7642 -88.9211 141° Southeast 411 473 13,700 -780 Descending Chicago Center
08:56PM 42.6772 -88.8278 142° Southeast 402 463 12,800 -840 Descending Chicago Center
08:57PM 42.5919 -88.7331 141° Southeast 396 456 12,000 -1,140 Descending Chicago Center
08:58PM 42.4972 -88.6325 142° Southeast 375 432 10,500 -1,020 Descending Chicago Center
08:59PM 42.4264 -88.5550 141° Southeast 321 369 10,000 -780 Descending Chicago Center
09:00PM 42.3772 -88.4858 134° Southeast 263 303 9,000 -900 Descending Chicago Center
09:01PM 42.3617 -88.3911 102° East 254 292 8,200 -660 Descending Chicago Center
09:02PM 42.3294 -88.3172 121° Southeast 246 283 7,700 -540 Descending Chicago Center
09:03PM 42.2772 -88.2606 141° Southeast 242 278 7,100 -480 Descending Chicago Center
09:04PM 42.2275 -88.2014 139° Southeast 203 234 6,800 -720 Descending Chicago Center
09:05PM 42.1872 -88.1556 140° Southeast 192 221 5,700 -1,020 Descending Chicago Center
09:06PM 42.1500 -88.1136 140° Southeast 181 208 4,700 -1,020 Descending Chicago Center
09:07PM 42.1167 -88.0833 146° Southeast 171 197 3,900 -960 Descending Chicago TRACON
09:08PM 42.0833 -88.0333 132° Southeast 170 196 3,100 -900 Descending Chicago TRACON
09:09PM 42.0500 -88.0000 143° Southeast 166 191 2,100 -900 Descending Chicago TRACON
09:10PM 42.0167 -87.9667 143° Southeast 158 182 1,400 -780 Descending Chicago TRACON
09:12PM 41.9817 -87.9067 143° Southeast  Level Estimated
09:19PM 41.9817 -87.9067 143° Southeast  Level Estimated